Time;durP1;ratioP1;P1;durP2;ratioP2;P2;SDS_P1;SDS_P2;PMS_P1;PMS_P2;Temp;Humidity;BMP_temperature;BMP_pressure;BME280_temperature;BME280_humidity;BME280_pressure;Samples;Min_cycle;Max_cycle;Signal;HPM_P1;HPM_P2
2023/11/25 00:03:06;;;;;;;9.93;5.15;;;12.10;99.90;;;;;;10524447;28;20044;-22
2023/11/25 00:08:08;;;;;;;11.17;4.40;;;11.60;99.90;;;;;;10531090;28;20069;-23
2023/11/25 00:13:12;;;;;;;15.27;4.65;;;11.90;96.70;;;;;;10530532;28;20056;-23
2023/11/25 00:18:14;;;;;;;16.02;5.22;;;11.10;99.90;;;;;;10533208;28;20039;-22
2023/11/25 00:23:17;;;;;;;13.30;4.77;;;11.30;99.00;;;;;;10517604;28;20044;-23
2023/11/25 00:28:20;;;;;;;15.82;4.65;;;11.70;98.60;;;;;;10511425;28;20048;-22
2023/11/25 00:33:22;;;;;;;8.90;3.67;;;11.00;99.90;;;;;;10523886;28;20872;-22
2023/11/25 00:38:24;;;;;;;8.17;3.63;;;12.50;99.90;;;;;;10524172;28;20052;-22
2023/11/25 00:43:27;;;;;;;12.10;4.20;;;12.70;98.30;;;;;;10526592;28;20191;-22
2023/11/25 00:48:31;;;;;;;11.60;4.18;;;11.40;96.20;;;;;;10518796;28;20479;-23
2023/11/25 00:53:32;;;;;;;11.25;5.07;;;11.90;94.00;;;;;;10521739;28;20052;-22
2023/11/25 00:58:36;;;;;;;12.57;4.33;;;12.20;99.90;;;;;;10527608;27;20070;-23
2023/11/25 01:03:38;;;;;;;10.52;3.70;;;12.10;96.80;;;;;;10519403;28;20052;-22
2023/11/25 01:08:39;;;;;;;12.27;3.97;;;12.00;99.90;;;;;;10531422;28;20044;-23
2023/11/25 01:13:43;;;;;;;9.50;4.60;;;11.20;94.70;;;;;;10525655;28;20059;-22
2023/11/25 01:18:45;;;;;;;13.13;4.38;;;11.60;95.50;;;;;;10524635;28;20521;-23
2023/11/25 01:23:47;;;;;;;10.30;4.03;;;11.20;95.30;;;;;;10522484;28;20055;-23
2023/11/25 01:28:50;;;;;;;6.67;3.30;;;11.60;85.20;;;;;;10517060;28;20051;-23
2023/11/25 01:33:52;;;;;;;7.93;3.20;;;11.00;97.00;;;;;;10521147;28;20048;-23
2023/11/25 01:38:54;;;;;;;8.37;3.13;;;12.20;91.60;;;;;;10527082;28;20071;-23
2023/11/25 01:43:59;;;;;;;7.50;3.03;;;11.70;93.20;;;;;;10514543;28;20052;-23
2023/11/25 01:49:01;;;;;;;5.05;2.60;;;12.10;99.90;;;;;;10516940;28;20043;-22
2023/11/25 01:54:04;;;;;;;6.47;2.90;;;11.80;82.30;;;;;;10525040;27;20051;-23
2023/11/25 01:59:11;;;;;;;7.85;2.53;;;12.70;89.50;;;;;;10521670;28;20638;-23
2023/11/25 02:04:13;;;;;;;10.13;3.00;;;11.70;99.90;;;;;;10525091;28;20072;-22
2023/11/25 02:09:16;;;;;;;6.80;2.70;;;12.20;99.90;;;;;;10516563;28;20081;-23
2023/11/25 02:14:20;;;;;;;7.88;2.58;;;12.30;99.90;;;;;;10514706;28;20968;-22
2023/11/25 02:19:24;;;;;;;5.05;2.40;;;10.90;99.30;;;;;;10522902;28;20055;-21
2023/11/25 02:24:29;;;;;;;6.07;2.47;;;10.00;97.30;;;;;;10520999;28;20062;-22
2023/11/25 02:29:32;;;;;;;7.07;3.20;;;11.40;99.80;;;;;;10517155;28;20040;-22
2023/11/25 02:34:34;;;;;;;6.65;2.35;;;12.00;99.80;;;;;;10516743;28;20135;-23
2023/11/25 02:39:38;;;;;;;7.90;2.67;;;11.70;97.00;;;;;;10522328;28;20776;-23
2023/11/25 02:44:40;;;;;;;6.15;2.47;;;11.90;89.70;;;;;;10516932;28;20063;-22
2023/11/25 02:49:42;;;;;;;6.72;2.47;;;11.20;99.90;;;;;;10519713;28;20594;-23
2023/11/25 02:54:45;;;;;;;12.87;3.00;;;10.70;99.90;;;;;;10525923;28;20054;-23
2023/11/25 02:59:47;;;;;;;7.32;2.00;;;10.60;94.90;;;;;;10522162;28;20067;-22
2023/11/25 03:04:49;;;;;;;8.87;2.70;;;10.50;92.00;;;;;;10521063;28;20053;-22
2023/11/25 03:09:52;;;;;;;8.00;2.07;;;10.20;94.90;;;;;;10529437;28;20841;-22
2023/11/25 03:14:54;;;;;;;6.65;2.17;;;10.80;99.90;;;;;;10514775;28;20055;-23
2023/11/25 03:19:56;;;;;;;6.50;2.07;;;12.10;85.60;;;;;;10510834;28;20158;-23
2023/11/25 03:25:00;;;;;;;6.63;1.83;;;12.20;95.60;;;;;;10521918;28;20047;-23
2023/11/25 03:30:03;;;;;;;5.30;1.80;;;9.60;99.30;;;;;;10523347;28;20045;-22
2023/11/25 03:35:07;;;;;;;6.68;1.80;;;9.70;99.90;;;;;;10520331;28;20059;-22
2023/11/25 03:40:13;;;;;;;5.38;1.80;;;9.70;99.90;;;;;;10525893;28;20052;-22
2023/11/25 03:45:15;;;;;;;4.93;1.60;;;11.80;99.90;;;;;;10521391;28;20070;-23
2023/11/25 03:50:18;;;;;;;4.65;1.23;;;11.30;99.90;;;;;;10522682;28;20116;-22
2023/11/25 03:55:21;;;;;;;2.88;1.45;;;10.00;99.90;;;;;;10525467;28;20051;-22
2023/11/25 04:15:32;;;;;;;4.78;1.38;;;11.20;99.90;;;;;;10585442;27;20119;-23
2023/11/25 04:20:34;;;;;;;4.35;1.65;;;10.80;99.90;;;;;;10602430;27;20554;-23
2023/11/25 04:25:36;;;;;;;4.07;1.13;;;10.30;99.90;;;;;;10599055;27;20047;-23
2023/11/25 04:30:40;;;;;;;5.80;1.60;;;9.10;99.90;;;;;;10599659;27;20046;-22
2023/11/25 04:35:41;;;;;;;3.50;1.33;;;10.50;99.90;;;;;;10604412;27;20065;-22
2023/11/25 04:40:43;;;;;;;4.73;1.43;;;9.10;99.90;;;;;;10604943;27;20055;-22
2023/11/25 04:45:47;;;;;;;7.73;1.40;;;10.50;99.90;;;;;;10602808;27;20046;-21
2023/11/25 04:50:49;;;;;;;2.63;1.35;;;9.90;99.90;;;;;;10594151;27;20383;-23
2023/11/25 04:55:51;;;;;;;4.07;1.27;;;9.80;99.90;;;;;;10600977;27;20112;-23
2023/11/25 05:00:54;;;;;;;5.23;1.67;;;9.10;99.90;;;;;;10591069;27;20447;-23
2023/11/25 05:05:56;;;;;;;7.28;1.33;;;9.50;99.90;;;;;;10597219;27;20049;-22
2023/11/25 05:10:58;;;;;;;8.20;1.10;;;10.10;99.90;;;;;;10602381;27;20047;-22
2023/11/25 05:16:03;;;;;;;2.57;1.40;;;11.00;99.90;;;;;;10590622;27;20108;-23
2023/11/25 05:21:07;;;;;;;4.40;1.27;;;10.10;99.90;;;;;;10590270;27;20058;-21
2023/11/25 05:26:09;;;;;;;7.43;1.50;;;9.30;99.90;;;;;;10571597;27;20047;-23
2023/11/25 05:31:12;;;;;;;4.27;1.10;;;10.20;99.90;;;;;;10572772;27;20088;-23
2023/11/25 05:36:14;;;;;;;4.50;1.45;;;10.50;99.90;;;;;;10571896;27;20047;-23
2023/11/25 05:41:17;;;;;;;6.13;2.43;;;9.30;99.90;;;;;;10569662;27;20039;-23
2023/11/25 05:46:24;;;;;;;4.78;1.38;;;10.00;99.90;;;;;;10565956;27;20051;-22
2023/11/25 05:51:33;;;;;;;2.00;1.30;;;9.20;99.90;;;;;;10560808;27;20051;-23
2023/11/25 05:56:35;;;;;;;3.17;1.10;;;10.00;99.90;;;;;;10558691;27;20052;-24
2023/11/25 06:01:39;;;;;;;3.20;1.60;;;10.30;99.90;;;;;;10567083;27;20184;-24
2023/11/25 06:06:41;;;;;;;8.35;1.30;;;10.40;99.90;;;;;;10562403;27;20047;-23
2023/11/25 06:11:42;;;;;;;1.80;0.80;;;9.30;99.90;;;;;;10567835;27;20104;-23
2023/11/25 06:16:46;;;;;;;3.77;0.83;;;9.60;99.90;;;;;;10563546;27;20051;-23
2023/11/25 06:21:48;;;;;;;4.68;1.42;;;9.20;99.90;;;;;;10566620;27;20802;-22
2023/11/25 06:26:50;;;;;;;5.30;1.10;;;10.00;99.90;;;;;;10567606;27;20050;-23
2023/11/25 06:31:54;;;;;;;3.50;0.80;;;9.60;99.90;;;;;;10567150;27;20350;-23
2023/11/25 06:36:56;;;;;;;3.75;0.90;;;9.30;99.90;;;;;;10568253;27;20485;-23
2023/11/25 06:41:59;;;;;;;3.07;0.80;;;10.80;99.90;;;;;;10568930;27;20607;-23
2023/11/25 06:47:03;;;;;;;3.15;1.15;;;11.00;99.90;;;;;;10569058;27;20047;-24
2023/11/25 06:52:05;;;;;;;3.10;0.90;;;10.90;97.70;;;;;;10566814;27;20102;-23
2023/11/25 06:57:07;;;;;;;3.47;0.88;;;10.70;99.90;;;;;;10562474;27;20611;-22
2023/11/25 07:02:11;;;;;;;2.23;0.83;;;11.00;99.90;;;;;;10569277;27;20433;-22
2023/11/25 07:07:13;;;;;;;2.88;1.17;;;10.10;99.90;;;;;;10566996;27;20051;-22
2023/11/25 07:12:15;;;;;;;5.10;1.42;;;9.60;99.90;;;;;;10566612;27;20047;-22
2023/11/25 07:17:19;;;;;;;4.85;1.38;;;9.70;99.90;;;;;;10565174;27;20238;-24
2023/11/25 07:22:21;;;;;;;4.40;1.52;;;10.50;99.90;;;;;;10567966;27;20183;-22
2023/11/25 07:27:23;;;;;;;4.03;1.37;;;10.10;99.90;;;;;;10562524;27;20607;-22
2023/11/25 07:32:26;;;;;;;5.50;1.48;;;9.90;99.90;;;;;;10560347;27;20051;-22
2023/11/25 07:37:28;;;;;;;5.38;1.65;;;9.60;99.90;;;;;;10567992;27;20050;-22
2023/11/25 07:42:30;;;;;;;5.27;1.47;;;9.50;99.90;;;;;;10564109;27;20039;-22
2023/11/25 07:47:33;;;;;;;3.67;1.40;;;10.50;99.90;;;;;;10564830;27;20054;-22
2023/11/25 07:52:35;;;;;;;5.15;2.03;;;10.90;99.90;;;;;;10565690;27;20058;-22
2023/11/25 07:57:38;;;;;;;6.43;1.73;;;9.70;99.90;;;;;;10560235;27;20838;-23
2023/11/25 08:02:41;;;;;;;4.00;1.83;;;11.10;99.90;;;;;;10566819;27;20047;-22
2023/11/25 08:07:43;;;;;;;3.05;1.67;;;11.50;99.90;;;;;;10571192;27;20058;-23
2023/11/25 08:12:45;;;;;;;2.60;1.33;;;12.00;99.90;;;;;;10563616;28;20078;-23
2023/11/25 08:17:49;;;;;;;4.18;1.70;;;10.70;99.90;;;;;;10565189;28;20054;-23
2023/11/25 08:22:51;;;;;;;5.38;1.70;;;11.00;99.90;;;;;;10568580;28;20201;-22
2023/11/25 08:27:53;;;;;;;5.73;2.00;;;10.90;99.90;;;;;;10554020;27;20576;-23
2023/11/25 08:32:56;;;;;;;2.73;1.20;;;10.60;99.90;;;;;;10545126;28;20134;-22
2023/11/25 08:37:58;;;;;;;4.22;1.52;;;10.90;99.90;;;;;;10564126;28;20051;-22
2023/11/25 08:43:08;;;;;;;4.10;1.17;;;9.70;99.90;;;;;;10561757;28;20047;-22
2023/11/25 08:48:11;;;;;;;5.20;1.38;;;9.70;99.90;;;;;;10553550;28;20070;-22
2023/11/25 08:53:16;;;;;;;5.30;1.23;;;11.40;99.90;;;;;;10560267;27;20068;-22
2023/11/25 08:58:18;;;;;;;5.88;1.20;;;11.00;99.90;;;;;;10550317;27;20049;-22
2023/11/25 09:03:21;;;;;;;6.07;1.57;;;11.40;99.90;;;;;;10561555;27;20043;-23
2023/11/25 09:08:23;;;;;;;8.88;1.85;;;11.10;99.90;;;;;;10556568;27;20051;-23
2023/11/25 09:13:25;;;;;;;6.33;2.47;;;11.70;99.90;;;;;;10550556;27;20051;-23
2023/11/25 09:18:28;;;;;;;4.25;1.50;;;14.10;97.70;;;;;;10550107;27;20841;-22
2023/11/25 09:23:30;;;;;;;8.45;1.58;;;11.90;98.00;;;;;;10558909;27;20496;-22
2023/11/25 09:28:32;;;;;;;10.77;1.57;;;13.30;97.00;;;;;;10554062;27;20480;-23
2023/11/25 09:33:36;;;;;;;9.77;1.50;;;11.80;99.90;;;;;;10556478;27;20155;-22
2023/11/25 09:38:38;;;;;;;5.72;1.85;;;12.00;99.90;;;;;;10559038;27;20055;-23
2023/11/25 09:43:40;;;;;;;5.47;1.40;;;11.70;99.90;;;;;;10561853;27;20978;-23
2023/11/25 09:48:43;;;;;;;10.98;2.03;;;12.30;99.90;;;;;;10558304;27;20486;-22
2023/11/25 09:53:47;;;;;;;6.10;1.23;;;12.30;99.90;;;;;;10559254;27;20058;-22
2023/11/25 09:58:50;;;;;;;10.10;1.83;;;13.30;99.90;;;;;;10562337;27;20891;-24
2023/11/25 10:03:55;;;;;;;;;;;14.40;99.90;;;;;;10558868;27;20078;-22
2023/11/25 10:08:57;;;;;;;11.23;1.67;;;13.70;98.50;;;;;;10557468;27;19927;-24
2023/11/25 10:13:59;;;;;;;10.83;1.60;;;14.20;91.10;;;;;;10554050;27;20067;-23
2023/11/25 10:19:02;;;;;;;5.22;1.70;;;15.00;99.90;;;;;;10563405;27;20047;-26
2023/11/25 10:24:08;;;;;;;8.77;1.40;;;13.30;99.90;;;;;;10557685;27;20046;-23
2023/11/25 10:29:11;;;;;;;9.50;1.88;;;15.00;99.90;;;;;;10555434;27;20125;-22
2023/11/25 10:34:14;;;;;;;;;;;13.70;95.60;;;;;;10558321;27;20047;-22
2023/11/25 10:39:17;;;;;;;3.40;1.25;;;13.70;99.90;;;;;;10554815;27;20430;-23
2023/11/25 10:44:20;;;;;;;7.93;1.60;;;14.00;99.90;;;;;;10555214;27;20586;-22
2023/11/25 10:49:24;;;;;;;7.78;1.55;;;12.70;96.00;;;;;;10548703;27;20047;-27
2023/11/25 10:54:31;;;;;;;6.85;1.40;;;12.30;99.90;;;;;;10554000;27;20477;-21
2023/11/25 10:59:34;;;;;;;6.55;1.65;;;12.00;97.90;;;;;;10554503;27;20047;-24
2023/11/25 11:04:44;;;;;;;7.65;1.83;;;13.00;99.90;;;;;;10558967;27;20047;-23
2023/11/25 11:09:50;;;;;;;9.88;1.52;;;11.80;99.90;;;;;;10552757;27;20048;-22
2023/11/25 11:15:02;;;;;;;5.55;1.95;;;12.50;97.50;;;;;;10551091;27;20051;-22
2023/11/25 11:20:11;;;;;;;6.32;1.90;;;12.90;99.90;;;;;;10558281;27;20422;-23
2023/11/25 11:25:19;;;;;;;7.43;1.70;;;13.00;99.90;;;;;;10555556;27;20332;-23
2023/11/25 11:30:27;;;;;;;2.80;1.27;;;13.50;94.60;;;;;;10555022;27;20349;-23
2023/11/25 11:35:40;;;;;;;4.97;1.35;;;14.00;99.10;;;;;;10557037;27;22682;-23
2023/11/25 11:40:42;;;;;;;8.38;1.33;;;13.10;97.00;;;;;;10561446;27;20127;-21
2023/11/25 11:45:44;;;;;;;8.17;1.50;;;12.80;97.30;;;;;;10556239;27;20051;-23
2023/11/25 11:50:50;;;;;;;4.93;1.10;;;14.40;91.10;;;;;;10559707;27;20499;-23
2023/11/25 11:55:53;;;;;;;10.20;1.70;;;14.50;99.90;;;;;;10565522;27;20417;-23
2023/11/25 12:01:08;;;;;;;10.43;1.92;;;14.40;99.90;;;;;;10566400;27;20051;-24
2023/11/25 12:06:16;;;;;;;8.23;1.77;;;14.70;99.90;;;;;;10555652;27;20050;-29
2023/11/25 12:11:18;;;;;;;5.13;1.23;;;12.80;99.90;;;;;;10561428;27;20059;-21
2023/11/25 12:16:20;;;;;;;7.43;1.17;;;14.20;99.90;;;;;;10556033;28;20036;-22
2023/11/25 12:21:25;;;;;;;10.35;1.83;;;14.30;99.90;;;;;;10559656;27;20115;-23
2023/11/25 12:26:29;;;;;;;10.88;1.92;;;13.10;99.90;;;;;;10549875;28;20396;-22
2023/11/25 12:31:31;;;;;;;7.55;1.50;;;14.60;96.80;;;;;;10553910;28;20192;-23
2023/11/25 12:36:35;;;;;;;7.40;2.17;;;13.30;97.00;;;;;;10557639;27;20119;-22
2023/11/25 12:41:37;;;;;;;10.50;2.10;;;13.40;99.90;;;;;;10560108;27;20593;-22
2023/11/25 12:46:39;;;;;;;12.32;1.67;;;14.40;97.70;;;;;;10565856;27;20058;-22
2023/11/25 12:51:45;;;;;;;5.30;1.92;;;13.20;94.20;;;;;;10559050;27;20177;-22
2023/11/25 12:56:51;;;;;;;7.32;1.50;;;12.80;98.80;;;;;;10565665;27;20036;-23
2023/11/25 13:01:53;;;;;;;7.32;1.80;;;13.00;99.90;;;;;;10571202;27;20157;-22
2023/11/25 13:06:59;;;;;;;6.43;1.30;;;14.00;99.90;;;;;;10560577;27;20553;-22
2023/11/25 13:12:01;;;;;;;8.90;1.98;;;13.30;95.20;;;;;;10562372;27;20050;-30
2023/11/25 13:17:05;;;;;;;3.80;1.30;;;12.80;99.90;;;;;;10565889;27;20043;-23
2023/11/25 13:22:09;;;;;;;6.00;1.27;;;13.40;90.60;;;;;;10565191;27;20844;-22
2023/11/25 13:27:12;;;;;;;8.63;1.65;;;14.90;95.00;;;;;;10570923;27;20126;-23
2023/11/25 13:32:17;;;;;;;5.70;1.40;;;13.00;92.60;;;;;;10565132;27;20764;-22
2023/11/25 13:37:20;;;;;;;8.82;1.85;;;12.70;98.30;;;;;;10561385;27;20738;-24
2023/11/25 13:42:22;;;;;;;10.52;1.70;;;13.30;94.20;;;;;;10558762;27;20124;-23
2023/11/25 13:47:24;;;;;;;5.28;1.25;;;13.10;99.90;;;;;;10558907;27;20432;-22
2023/11/25 13:52:27;;;;;;;4.07;0.93;;;11.70;99.90;;;;;;10547736;27;20047;-23
2023/11/25 13:57:29;;;;;;;4.80;1.23;;;13.30;99.90;;;;;;10546226;27;20086;-23
2023/11/25 14:02:33;;;;;;;9.33;1.53;;;12.80;99.90;;;;;;10547356;27;20064;-23
2023/11/25 14:07:37;;;;;;;6.07;1.45;;;12.80;99.90;;;;;;10551933;27;20052;-23
2023/11/25 14:12:40;;;;;;;7.63;1.42;;;13.80;99.90;;;;;;10551516;27;20133;-23
2023/11/25 14:17:42;;;;;;;4.22;1.15;;;15.00;99.90;;;;;;10545835;27;20094;-23
2023/11/25 14:22:47;;;;;;;7.53;1.63;;;14.80;99.90;;;;;;10548330;27;20059;-23
2023/11/25 14:27:49;;;;;;;4.47;1.42;;;15.50;98.90;;;;;;10547737;27;20082;-23
2023/11/25 14:32:51;;;;;;;5.13;1.02;;;15.70;96.50;;;;;;10547466;27;20043;-22
2023/11/25 14:37:56;;;;;;;8.30;1.40;;;14.70;99.90;;;;;;10552624;27;20588;-22
2023/11/25 14:42:59;;;;;;;6.38;1.48;;;13.50;99.90;;;;;;10549985;27;20090;-23
2023/11/25 14:48:01;;;;;;;4.85;1.40;;;13.50;99.90;;;;;;10547444;27;20051;-22
2023/11/25 14:53:04;;;;;;;5.10;1.23;;;13.90;99.90;;;;;;10546798;27;20055;-23
2023/11/25 14:58:08;;;;;;;4.32;1.48;;;12.10;99.90;;;;;;10546325;27;20077;-23
2023/11/25 15:03:09;;;;;;;5.25;1.40;;;11.50;99.90;;;;;;10546286;27;20039;-24
2023/11/25 15:08:13;;;;;;;4.63;1.10;;;12.70;99.90;;;;;;10547872;27;20783;-22
2023/11/25 15:13:15;;;;;;;5.35;1.23;;;11.90;99.90;;;;;;10542879;27;20506;-24
2023/11/25 15:18:17;;;;;;;3.83;0.90;;;12.70;99.90;;;;;;10540547;27;20765;-23
2023/11/25 15:23:20;;;;;;;4.40;1.53;;;11.80;99.90;;;;;;10545667;27;20078;-22
2023/11/25 15:28:22;;;;;;;4.75;1.73;;;11.10;99.90;;;;;;10543430;27;20044;-23
2023/11/25 15:33:24;;;;;;;4.47;1.87;;;10.90;99.90;;;;;;10552338;27;20465;-23
2023/11/25 15:38:27;;;;;;;11.23;2.00;;;10.60;99.90;;;;;;10548997;27;20050;-23
2023/11/25 15:43:29;;;;;;;8.65;2.80;;;9.90;99.90;;;;;;10563446;27;20489;-23
2023/11/25 15:48:31;;;;;;;8.57;2.13;;;11.30;99.90;;;;;;10552878;27;20738;-21
2023/11/25 15:53:35;;;;;;;5.18;2.17;;;10.70;99.90;;;;;;10547642;27;20502;-22
2023/11/25 15:58:37;;;;;;;8.15;2.38;;;10.50;99.90;;;;;;10547800;27;20051;-23
2023/11/25 16:03:39;;;;;;;6.78;2.13;;;11.20;99.90;;;;;;10563140;27;20076;-23
2023/11/25 16:08:43;;;;;;;8.95;2.70;;;10.90;99.90;;;;;;10563431;27;20051;-23
2023/11/25 16:13:45;;;;;;;9.98;3.40;;;10.90;99.90;;;;;;10552848;27;20584;-23
2023/11/25 16:18:47;;;;;;;9.33;2.77;;;11.70;99.90;;;;;;10550692;28;20659;-25
2023/11/25 16:23:50;;;;;;;5.93;2.97;;;10.20;99.90;;;;;;10545679;28;20086;-23
2023/11/25 16:28:52;;;;;;;9.05;2.42;;;11.00;99.90;;;;;;10561920;27;21158;-23
2023/11/25 16:33:54;;;;;;;6.83;2.77;;;10.50;99.90;;;;;;10561415;27;20047;-23
2023/11/25 16:38:58;;;;;;;8.75;2.47;;;11.90;99.90;;;;;;10552722;27;20111;-23
2023/11/25 16:44:00;;;;;;;10.90;3.22;;;12.70;99.90;;;;;;10548546;28;20039;-24
2023/11/25 16:49:02;;;;;;;6.27;2.70;;;14.00;99.90;;;;;;10557228;28;20046;-22
2023/11/25 16:54:06;;;;;;;7.13;3.13;;;14.10;97.00;;;;;;10552898;28;20046;-24
2023/11/25 16:59:09;;;;;;;8.75;2.95;;;15.10;99.90;;;;;;10555635;28;20136;-24
2023/11/25 17:04:11;;;;;;;6.20;2.38;;;13.30;99.90;;;;;;10561012;28;20136;-24
2023/11/25 17:09:14;;;;;;;;;;;13.10;99.90;;;;;;10560443;27;20044;-24
2023/11/25 17:14:17;;;;;;;;;;;11.60;99.90;;;;;;10560035;28;19924;-23
2023/11/25 17:19:20;;;;;;;6.40;2.30;;;10.70;99.90;;;;;;10564729;27;19923;-22
2023/11/25 17:24:24;;;;;;;11.35;4.20;;;9.90;99.90;;;;;;10570094;27;20047;-23
2023/11/25 17:29:26;;;;;;;10.18;3.63;;;9.70;99.90;;;;;;10573757;27;20050;-23
2023/11/25 17:34:28;;;;;;;10.27;4.30;;;10.30;99.90;;;;;;10559836;27;20699;-23
2023/11/25 17:39:33;;;;;;;11.90;4.97;;;9.30;99.90;;;;;;10572520;27;20046;-22
2023/11/25 17:44:35;;;;;;;12.05;4.20;;;11.20;99.90;;;;;;10559932;27;20406;-23
2023/11/25 17:49:37;;;;;;;8.50;4.20;;;11.40;99.90;;;;;;10568906;27;20063;-24
2023/11/25 17:54:40;;;;;;;12.53;4.83;;;11.20;99.90;;;;;;10567757;27;20781;-22
2023/11/25 17:59:42;;;;;;;12.48;4.18;;;13.10;99.90;;;;;;10573561;27;20760;-23
2023/11/25 18:04:44;;;;;;;11.57;3.27;;;15.20;99.90;;;;;;10564874;27;20784;-24
2023/11/25 18:09:47;;;;;;;6.43;2.53;;;14.20;99.90;;;;;;10568684;27;20069;-21
2023/11/25 18:14:49;;;;;;;12.30;2.60;;;12.00;99.90;;;;;;10559012;27;20391;-22
2023/11/25 18:19:51;;;;;;;7.43;2.17;;;13.90;99.90;;;;;;10569188;27;20059;-22
2023/11/25 18:24:54;;;;;;;8.50;2.70;;;15.10;99.90;;;;;;10570303;27;20051;-22
2023/11/25 18:29:56;;;;;;;11.23;2.22;;;12.80;99.90;;;;;;10563771;27;20053;-23
2023/11/25 18:35:00;;;;;;;10.87;3.03;;;11.00;99.90;;;;;;10563195;27;20051;-24
2023/11/25 18:40:04;;;;;;;11.13;3.17;;;9.80;99.90;;;;;;10562791;27;20067;-22
2023/11/25 18:45:07;;;;;;;7.65;2.67;;;9.60;99.90;;;;;;10555854;27;20148;-24
2023/11/25 18:50:10;;;;;;;7.93;3.83;;;9.70;99.90;;;;;;10545043;27;20533;-23
2023/11/25 18:55:13;;;;;;;12.40;4.03;;;9.90;99.90;;;;;;10555272;27;20054;-24
2023/11/25 19:00:17;;;;;;;10.60;4.22;;;9.60;99.90;;;;;;10559230;27;20160;-24
2023/11/25 19:05:19;;;;;;;12.23;4.72;;;9.90;99.90;;;;;;10558041;27;20052;-23
2023/11/25 19:10:23;;;;;;;14.82;4.88;;;9.80;99.90;;;;;;10569899;27;20051;-23
2023/11/25 19:15:24;;;;;;;13.98;5.60;;;9.60;99.90;;;;;;10560959;27;20166;-23
2023/11/25 19:20:26;;;;;;;9.87;4.87;;;10.20;99.90;;;;;;10563208;27;20057;-23
2023/11/25 19:25:30;;;;;;;13.60;5.50;;;11.00;99.90;;;;;;10558997;27;20466;-23
2023/11/25 19:30:31;;;;;;;10.60;4.65;;;13.00;99.90;;;;;;10559307;27;20537;-22
2023/11/25 19:35:33;;;;;;;8.50;3.50;;;14.00;98.60;;;;;;10563761;27;20055;-23
2023/11/25 19:40:36;;;;;;;9.23;4.00;;;14.60;97.20;;;;;;10568133;27;20883;-22
2023/11/25 19:45:38;;;;;;;8.15;3.58;;;13.10;99.90;;;;;;10558417;27;20052;-23
2023/11/25 19:50:41;;;;;;;6.38;3.13;;;13.60;99.90;;;;;;10549249;27;20112;-23
2023/11/25 19:55:44;;;;;;;6.87;3.23;;;15.60;99.90;;;;;;10553238;27;20063;-24
2023/11/25 20:00:46;;;;;;;11.27;3.40;;;16.00;98.00;;;;;;10567304;27;20054;-24
2023/11/25 20:05:48;;;;;;;11.82;3.40;;;15.00;99.10;;;;;;10558768;27;20718;-24
2023/11/25 20:10:51;;;;;;;10.10;3.30;;;14.20;98.70;;;;;;10545687;27;20059;-23
2023/11/25 20:15:53;;;;;;;11.48;3.25;;;14.40;95.10;;;;;;10554912;27;20096;-23
2023/11/25 20:20:55;;;;;;;6.40;2.42;;;13.80;99.90;;;;;;10554271;27;20047;-22
2023/11/25 20:25:58;;;;;;;15.15;2.72;;;15.00;99.90;;;;;;10560172;28;20779;-22
2023/11/25 20:31:00;;;;;;;7.65;2.97;;;14.60;98.50;;;;;;10559641;28;20143;-24
2023/11/25 20:36:02;;;;;;;7.90;3.47;;;13.70;98.60;;;;;;10569030;28;20126;-22
2023/11/25 20:41:06;;;;;;;7.88;3.63;;;14.40;97.70;;;;;;10541960;28;20050;-22
2023/11/25 20:46:08;;;;;;;9.15;3.53;;;13.90;99.90;;;;;;10552190;27;20422;-23
2023/11/25 20:51:09;;;;;;;9.87;3.27;;;15.10;99.90;;;;;;10555766;28;20074;-22
2023/11/25 20:56:13;;;;;;;9.00;3.83;;;14.50;94.00;;;;;;10552588;27;20048;-23
2023/11/25 21:01:16;;;;;;;6.15;3.05;;;15.00;99.00;;;;;;10558094;27;20061;-23
2023/11/25 21:06:17;;;;;;;6.82;3.40;;;15.00;99.30;;;;;;10555596;27;20128;-23
2023/11/25 21:11:21;;;;;;;8.70;2.90;;;13.80;99.90;;;;;;10556393;27;20084;-23
2023/11/25 21:16:22;;;;;;;7.05;3.33;;;11.60;99.90;;;;;;10557597;27;20808;-22
2023/11/25 21:21:26;;;;;;;7.43;2.80;;;12.60;99.40;;;;;;10559642;27;20051;-22
2023/11/25 21:26:29;;;;;;;9.35;3.35;;;14.80;99.90;;;;;;10561044;27;20403;-22
2023/11/25 21:31:31;;;;;;;8.85;3.22;;;15.70;98.80;;;;;;10559141;27;20156;-24
2023/11/25 21:36:34;;;;;;;3.83;2.60;;;16.10;96.70;;;;;;10558696;27;20043;-23
2023/11/25 21:41:37;;;;;;;5.72;2.30;;;15.60;98.90;;;;;;10555300;27;20562;-23
2023/11/25 21:46:39;;;;;;;6.82;2.40;;;15.70;98.90;;;;;;10552513;27;20769;-23
2023/11/25 21:51:40;;;;;;;6.30;2.43;;;16.20;96.40;;;;;;10552873;27;20206;-23
2023/11/25 21:56:44;;;;;;;10.40;2.30;;;16.40;96.50;;;;;;10555888;27;20047;-23
2023/11/25 22:01:46;;;;;;;5.28;2.03;;;16.80;95.30;;;;;;10538679;27;20052;-23
2023/11/25 22:06:47;;;;;;;4.32;1.90;;;16.80;95.30;;;;;;10544792;27;20631;-22
2023/11/25 22:11:51;;;;;;;5.53;2.30;;;16.80;95.00;;;;;;10552276;27;20826;-22
2023/11/25 22:16:52;;;;;;;2.63;1.60;;;17.00;94.60;;;;;;10557419;27;20074;-23
2023/11/25 22:21:54;;;;;;;5.33;2.40;;;16.00;90.40;;;;;;10564750;27;20069;-23
2023/11/25 22:27:09;;;;;;;6.50;1.87;;;15.20;97.70;;;;;;10564851;27;20048;-22
2023/11/25 22:32:11;;;;;;;6.30;2.13;;;15.50;97.30;;;;;;10546270;27;20071;-23
2023/11/25 22:37:13;;;;;;;9.53;2.23;;;16.60;95.50;;;;;;10564944;27;20039;-22
2023/11/25 22:42:17;;;;;;;10.93;2.58;;;16.90;94.90;;;;;;10564077;27;20047;-24
2023/11/25 22:47:19;;;;;;;5.88;1.90;;;16.90;94.50;;;;;;10540710;27;20166;-28
2023/11/25 22:52:21;;;;;;;4.75;1.30;;;17.00;94.50;;;;;;10571247;27;20047;-27
2023/11/25 22:57:24;;;;;;;6.67;1.90;;;17.10;94.30;;;;;;10572437;27;20126;-22
2023/11/25 23:02:28;;;;;;;9.27;2.00;;;17.10;94.20;;;;;;10563045;27;20438;-23
2023/11/25 23:07:30;;;;;;;3.50;1.58;;;17.00;94.20;;;;;;10564141;27;20500;-22
2023/11/25 23:12:33;;;;;;;4.07;1.67;;;17.00;94.40;;;;;;10559002;27;23186;-22
2023/11/25 23:17:35;;;;;;;7.70;2.30;;;12.90;97.00;;;;;;10559347;27;20062;-22
2023/11/25 23:22:37;;;;;;;9.50;1.77;;;15.20;91.00;;;;;;10563883;27;20714;-22
2023/11/25 23:27:40;;;;;;;7.30;1.73;;;16.10;97.30;;;;;;10561196;27;20050;-22
2023/11/25 23:32:43;;;;;;;8.48;1.58;;;16.70;95.90;;;;;;10562217;27;20469;-23
2023/11/25 23:37:45;;;;;;;9.35;1.88;;;16.90;95.10;;;;;;10553759;27;20110;-23
2023/11/25 23:42:48;;;;;;;13.32;2.08;;;16.90;94.80;;;;;;10559365;27;20158;-22
2023/11/25 23:47:50;;;;;;;6.32;1.63;;;17.00;94.60;;;;;;10556710;27;20812;-23
2023/11/25 23:52:52;;;;;;;3.50;1.30;;;17.00;94.40;;;;;;10549861;27;20050;-23
2023/11/25 23:57:55;;;;;;;2.33;1.23;;;17.00;94.30;;;;;;10552476;27;20128;-23
